Aeroporto :
LOGIN :

Iscrizione | Disclaimer

   EN    FR    IT 

 










Sommario :    VFR   VFR Marginale   IFR   IFR Intensivo   IFR Molto Intensivo
Visibilità : 
Base nubi : 
>= 8 km
>= 3000ft
5 / 8 km
1000 / 3000 ft
1500m / 5 km
500 / 1000 ft
800 / 1500m
200 / 500 ft
< 800m
< 200 ft
Simboli :   Temporali  Nebbia  Neve Forte  Precipitazioni Forti  Vento > 20 kt
SIGMETs :   Varie  Temporali  Ghiacco  Turbolenza  Onda orograficha  Ceneri Vulcaniche







- Altitudine del aeroporto : 13 ft
- Codice IATA : LYX
- Carte del aeroporto


EGMD - Lydd

ULTIMO METAR :
  • 161550Z 04008KT 9999 BKN022 20/16 Q1021

METARs OBSOLETI :
  • 161520Z 35008KT 320V040 9999 BKN026 20/16 Q1021
  • 161450Z 33008KT 9999 BKN027 21/16 Q1021
  • 161420Z 30006KT 280V350 9999 BKN026 21/16 Q1021
  • 161350Z 29004KT 220V350 9999 BKN025 BKN042 21/16 Q1021
  • 161320Z 25005KT 220V280 9999 SCT026 21/17 Q1021

TAF TAF EGMD
Valido dal 16 a 15 ore il 17 a 00 ore UTC


161406Z 1615/1624 30005KT 9999 SCT025
TEMPO 1617/1624 4000 -RADZ BKN007
ATIS : +44 1797 322 422
Nessun NOTAM noto per questo aeroporto.



MetMap, La meteo Aeronautica in un colpo d'occhio ! - Copyright ORBIFLY Dicembre 2007 - Disclaimer

ORBIFLY MET'MAP TEAM :

Programmazione e sviluppo : Alexandra Zaïnal
Concezione e sviluppo : Baudouin d'Aumeries
Co-Programmazione e sviluppo : Marc-Olivier Méhu
Supporto tecnico e logistico : Manuel Goepfert
Aiuto per la traduzione : Arnaldo La Scala

Contatto : metmap@orbifly.com




FONTI E CREDITI :

   NOAA